createdAt,value
2017-12-30T00:01:53.809Z,23.13
2017-12-30T00:04:21.530Z,23.90
2017-12-30T00:06:49.232Z,23.80
2017-12-30T00:09:16.942Z,24.70
2017-12-30T00:11:45.404Z,24.33
2017-12-30T00:14:14.284Z,22.73
2017-12-30T00:16:41.982Z,24.33
2017-12-30T00:19:10.425Z,23.83
2017-12-30T00:21:38.152Z,23.73
2017-12-30T00:24:05.878Z,25.03
2017-12-30T00:26:34.360Z,24.27
2017-12-30T00:29:02.060Z,24.37
2017-12-30T00:31:29.717Z,24.00
2017-12-30T00:33:57.403Z,23.60
2017-12-30T00:36:25.065Z,23.50
2017-12-30T00:38:52.819Z,24.40
2017-12-30T00:41:20.513Z,25.30
2017-12-30T00:43:48.207Z,25.67
2017-12-30T00:46:15.907Z,25.20
2017-12-30T00:48:43.584Z,23.93
2017-12-30T00:51:11.321Z,25.40
2017-12-30T00:53:39.046Z,23.80
2017-12-30T00:56:06.734Z,25.20
2017-12-30T00:58:34.436Z,25.57
2017-12-30T01:01:02.104Z,24.03
2017-12-30T01:03:29.831Z,22.70
2017-12-30T01:05:57.645Z,23.53
2017-12-30T01:08:25.266Z,24.03
2017-12-30T01:10:52.962Z,24.37
2017-12-30T01:13:20.690Z,23.03
2017-12-30T01:15:48.423Z,21.43
2017-12-30T01:18:16.113Z,22.17
2017-12-30T01:20:44.587Z,21.33
2017-12-30T01:23:12.313Z,22.37
2017-12-30T01:25:39.983Z,20.60
2017-12-30T01:28:07.685Z,21.40
2017-12-30T01:30:35.398Z,20.57
2017-12-30T01:33:03.110Z,21.53
2017-12-30T01:35:31.764Z,21.50
2017-12-30T01:37:59.440Z,20.43
2017-12-30T01:40:27.130Z,18.43
2017-12-30T01:42:54.885Z,20.37
2017-12-30T01:45:23.323Z,19.93
2017-12-30T01:47:51.017Z,19.80
2017-12-30T01:50:18.744Z,19.53
2017-12-30T01:52:46.477Z,18.83
2017-12-30T01:55:14.153Z,18.80
2017-12-30T01:57:41.818Z,17.63
2017-12-30T02:00:09.465Z,18.63
2017-12-30T02:02:37.171Z,17.20
2017-12-30T02:05:04.890Z,17.60
2017-12-30T02:07:33.423Z,17.43
2017-12-30T02:10:01.124Z,17.83
2017-12-30T02:12:28.850Z,17.67
2017-12-30T02:14:56.580Z,17.17
2017-12-30T02:17:24.260Z,17.50
2017-12-30T02:19:51.982Z,17.60
2017-12-30T02:22:19.670Z,16.83
2017-12-30T02:24:47.344Z,17.37
2017-12-30T02:27:15.064Z,17.73
2017-12-30T02:29:43.509Z,16.53
2017-12-30T02:32:11.253Z,17.07
2017-12-30T02:34:39.083Z,16.37
2017-12-30T02:37:06.760Z,17.37
2017-12-30T02:39:35.247Z,15.80
2017-12-30T02:42:02.958Z,16.57
2017-12-30T02:44:30.621Z,15.77
2017-12-30T02:46:59.152Z,16.73
2017-12-30T02:49:26.832Z,15.57
2017-12-30T02:51:54.580Z,13.77
2017-12-30T02:54:23.021Z,15.90
2017-12-30T02:56:50.737Z,15.90
2017-12-30T02:59:18.448Z,14.80
2017-12-30T03:01:46.130Z,14.53
2017-12-30T03:04:15.028Z,14.97
2017-12-30T03:06:42.772Z,13.80
2017-12-30T03:09:10.427Z,12.77
2017-12-30T03:11:38.110Z,13.33
2017-12-30T03:14:05.813Z,12.30
2017-12-30T03:16:33.526Z,12.07
2017-12-30T03:19:01.227Z,12.07
2017-12-30T03:21:29.747Z,10.17
2017-12-30T03:23:57.424Z,11.20
2017-12-30T03:26:25.122Z,10.60
2017-12-30T03:28:52.784Z,8.47
2017-12-30T03:31:20.486Z,10.20
2017-12-30T03:33:48.198Z,9.13
2017-12-30T03:36:15.895Z,9.13
2017-12-30T03:38:44.386Z,8.67
2017-12-30T03:41:12.067Z,9.50
2017-12-30T03:43:39.711Z,7.60
2017-12-30T03:46:07.411Z,8.13
2017-12-30T03:48:35.201Z,7.70
2017-12-30T03:51:02.872Z,7.87
2017-12-30T03:53:30.535Z,6.97
2017-12-30T03:55:58.389Z,7.10
2017-12-30T03:58:26.072Z,6.97
2017-12-30T04:00:54.524Z,6.03
2017-12-30T04:03:22.213Z,6.00
2017-12-30T04:05:49.911Z,6.00
2017-12-30T04:08:17.562Z,6.13
2017-12-30T04:10:45.259Z,6.10
2017-12-30T04:13:12.928Z,6.20
2017-12-30T04:15:40.690Z,5.33
2017-12-30T04:18:08.362Z,5.63
2017-12-30T04:20:36.001Z,5.23
2017-12-30T04:23:03.690Z,4.87
2017-12-30T04:25:31.607Z,5.10
2017-12-30T04:28:00.066Z,4.87
2017-12-30T04:30:27.755Z,4.93
2017-12-30T04:32:55.459Z,4.90
2017-12-30T04:35:23.172Z,4.57
2017-12-30T04:37:51.643Z,4.60
2017-12-30T04:40:19.329Z,4.40
2017-12-30T04:42:47.774Z,4.77
2017-12-30T04:45:15.434Z,4.17
2017-12-30T04:47:43.128Z,4.80
2017-12-30T04:50:11.605Z,4.13
2017-12-30T04:52:40.101Z,4.10
2017-12-30T04:55:08.752Z,3.93
2017-12-30T04:57:36.488Z,3.37
2017-12-30T05:00:04.141Z,3.80
2017-12-30T05:02:31.759Z,4.10
2017-12-30T05:04:59.483Z,4.20
2017-12-30T05:07:27.115Z,3.93
2017-12-30T05:09:54.792Z,4.85
2017-12-30T05:12:22.462Z,3.80
2017-12-30T05:14:50.161Z,3.43
2017-12-30T05:17:17.851Z,3.77
2017-12-30T05:19:45.562Z,4.03
2017-12-30T05:22:13.258Z,4.30
2017-12-30T05:24:40.994Z,3.33
2017-12-30T05:27:08.677Z,4.53
2017-12-30T05:29:36.423Z,3.80
2017-12-30T05:32:04.108Z,3.70
2017-12-30T05:34:31.819Z,3.27
2017-12-30T05:36:59.620Z,4.17
2017-12-30T05:39:27.335Z,4.27
2017-12-30T05:41:55.020Z,3.93
2017-12-30T05:44:22.734Z,3.63
2017-12-30T05:46:50.436Z,4.07
2017-12-30T05:49:18.178Z,4.53
2017-12-30T05:51:46.630Z,4.67
2017-12-30T05:54:14.556Z,4.93
2017-12-30T05:56:42.286Z,5.10
2017-12-30T05:59:10.007Z,4.83
2017-12-30T06:01:37.717Z,4.37
2017-12-30T06:04:05.434Z,4.33
2017-12-30T06:06:33.041Z,3.90
2017-12-30T06:09:00.750Z,4.43
2017-12-30T06:11:28.427Z,4.70
2017-12-30T06:13:56.130Z,4.70
2017-12-30T06:16:23.827Z,4.17
2017-12-30T06:18:51.529Z,3.83
2017-12-30T06:21:19.195Z,4.17
2017-12-30T06:23:46.920Z,3.90
2017-12-30T06:26:14.576Z,4.57
2017-12-30T06:28:42.233Z,4.03
2017-12-30T06:31:10.730Z,4.23
2017-12-30T06:33:38.404Z,4.63
2017-12-30T06:36:06.072Z,4.20
2017-12-30T06:38:33.763Z,4.23
2017-12-30T06:41:01.410Z,5.43
2017-12-30T06:43:29.093Z,3.53
2017-12-30T06:45:57.931Z,4.23
2017-12-30T06:48:25.614Z,3.87
2017-12-30T06:50:53.327Z,4.03
2017-12-30T06:53:21.038Z,4.23
2017-12-30T06:55:48.750Z,3.90
2017-12-30T06:58:16.441Z,3.33
2017-12-30T07:00:44.146Z,4.03
2017-12-30T07:03:11.859Z,3.57
2017-12-30T07:05:39.508Z,3.43
2017-12-30T07:08:07.198Z,4.27
2017-12-30T07:10:34.885Z,4.73
2017-12-30T07:13:02.526Z,3.43
2017-12-30T07:15:30.480Z,3.80
2017-12-30T07:17:58.172Z,4.00
2017-12-30T07:20:25.886Z,3.50
2017-12-30T07:22:53.594Z,3.70
2017-12-30T07:25:21.234Z,3.87
2017-12-30T07:27:48.973Z,4.63
2017-12-30T07:30:16.671Z,3.93
2017-12-30T07:32:44.356Z,4.03
2017-12-30T07:35:12.078Z,3.33
2017-12-30T07:37:39.787Z,3.37
2017-12-30T07:40:07.517Z,3.70
2017-12-30T07:42:35.178Z,4.27
2017-12-30T07:45:03.054Z,3.33
2017-12-30T07:47:31.517Z,4.03
2017-12-30T07:50:00.045Z,4.00
2017-12-30T07:52:27.766Z,3.97
2017-12-30T07:54:55.491Z,4.43
2017-12-30T07:57:23.192Z,4.37
2017-12-30T07:59:50.869Z,3.77
2017-12-30T08:02:18.588Z,4.23
2017-12-30T08:04:46.271Z,3.70
2017-12-30T08:07:13.961Z,4.20
2017-12-30T08:09:41.591Z,4.00
2017-12-30T08:12:09.276Z,4.10
2017-12-30T08:14:37.149Z,4.03
2017-12-30T08:17:04.866Z,4.00
2017-12-30T08:19:32.553Z,4.57
2017-12-30T08:22:00.272Z,3.80
2017-12-30T08:24:27.914Z,4.00
2017-12-30T08:26:55.611Z,4.07
2017-12-30T08:29:23.287Z,4.27
2017-12-30T08:31:50.924Z,4.13
2017-12-30T08:34:18.624Z,4.50
2017-12-30T08:36:46.294Z,3.50
2017-12-30T08:39:13.997Z,3.97
2017-12-30T08:41:41.694Z,4.00
2017-12-30T08:44:10.316Z,4.93
2017-12-30T08:46:38.111Z,4.20
2017-12-30T08:49:06.568Z,4.43
2017-12-30T08:51:34.263Z,5.23
2017-12-30T08:54:02.010Z,4.40
2017-12-30T08:56:31.259Z,6.40
2017-12-30T08:58:59.047Z,5.27
2017-12-30T09:01:26.765Z,4.33
2017-12-30T09:03:55.179Z,4.73
2017-12-30T09:06:22.881Z,4.60
2017-12-30T09:08:50.579Z,3.60
2017-12-30T09:11:18.288Z,3.93
2017-12-30T09:13:46.026Z,4.40
2017-12-30T09:16:13.707Z,4.23
2017-12-30T09:18:41.415Z,4.10
2017-12-30T09:21:09.902Z,4.80
2017-12-30T09:23:38.285Z,4.87
2017-12-30T09:26:06.003Z,4.70
2017-12-30T09:28:33.788Z,4.93
2017-12-30T09:31:02.937Z,4.40
2017-12-30T09:33:30.675Z,3.83
2017-12-30T09:35:59.824Z,4.33
2017-12-30T09:38:27.547Z,3.70
2017-12-30T09:40:56.001Z,5.20
2017-12-30T09:43:23.694Z,4.30
2017-12-30T09:45:57.836Z,3.70
2017-12-30T09:48:25.527Z,3.80
2017-12-30T09:50:53.241Z,4.10
2017-12-30T09:53:22.435Z,3.83
2017-12-30T09:55:52.008Z,4.60
2017-12-30T09:58:19.749Z,4.53
2017-12-30T10:00:47.383Z,5.43
2017-12-30T10:03:15.116Z,4.63
2017-12-30T10:05:42.825Z,4.83
2017-12-30T10:08:10.526Z,4.60
2017-12-30T10:10:38.197Z,4.90
2017-12-30T10:13:05.912Z,5.90
2017-12-30T10:15:33.510Z,6.23
2017-12-30T10:18:01.209Z,5.03
2017-12-30T10:20:29.696Z,5.33
2017-12-30T10:22:58.167Z,5.40
2017-12-30T10:25:25.889Z,5.07
2017-12-30T10:27:53.599Z,5.20
2017-12-30T10:30:22.005Z,5.17
2017-12-30T10:32:49.710Z,4.97
2017-12-30T10:35:17.409Z,4.70
2017-12-30T10:37:45.851Z,4.70
2017-12-30T10:40:13.581Z,4.60
2017-12-30T10:42:41.263Z,4.37
2017-12-30T10:45:08.965Z,4.30
2017-12-30T10:47:36.641Z,3.77
2017-12-30T10:50:05.109Z,4.33
2017-12-30T10:52:32.775Z,4.70
2017-12-30T10:55:01.549Z,3.87
2017-12-30T10:57:29.225Z,4.80
2017-12-30T10:59:56.884Z,5.30
2017-12-30T11:02:24.570Z,5.17
2017-12-30T11:04:52.185Z,4.80
2017-12-30T11:07:19.788Z,4.13
2017-12-30T11:09:47.412Z,4.60
2017-12-30T11:12:15.079Z,4.90
2017-12-30T11:14:42.780Z,4.23
2017-12-30T11:17:10.486Z,4.57
2017-12-30T11:19:38.163Z,4.23
2017-12-30T11:22:05.851Z,4.03
2017-12-30T11:24:34.764Z,3.60
2017-12-30T11:27:02.447Z,2.90
2017-12-30T11:29:30.130Z,2.20
2017-12-30T11:31:58.591Z,2.40
2017-12-30T11:34:27.066Z,2.77
2017-12-30T11:36:54.772Z,3.37
2017-12-30T11:39:22.453Z,3.13
2017-12-30T11:41:50.152Z,2.80
2017-12-30T11:44:17.848Z,2.40
2017-12-30T11:46:45.532Z,2.20
2017-12-30T11:49:13.222Z,2.20
2017-12-30T11:51:40.938Z,2.17
2017-12-30T11:54:08.801Z,2.80
2017-12-30T11:56:36.502Z,2.80
2017-12-30T11:59:04.205Z,2.70
2017-12-30T12:01:31.910Z,2.70
2017-12-30T12:03:59.573Z,2.90
2017-12-30T12:06:27.258Z,2.47
2017-12-30T12:08:54.954Z,3.27
2017-12-30T12:11:22.659Z,3.23
2017-12-30T12:13:50.362Z,3.10
2017-12-30T12:16:18.043Z,3.80
2017-12-30T12:18:46.559Z,2.90
2017-12-30T12:21:14.257Z,3.23
2017-12-30T12:23:41.962Z,3.13
2017-12-30T12:26:10.341Z,3.70
2017-12-30T12:28:38.773Z,3.47
2017-12-30T12:31:06.494Z,3.37
2017-12-30T12:33:34.959Z,3.67
2017-12-30T12:36:03.383Z,4.47
2017-12-30T12:38:31.056Z,4.43
2017-12-30T12:40:58.748Z,4.50
2017-12-30T12:43:26.432Z,6.27
2017-12-30T12:45:55.093Z,6.13
2017-12-30T12:48:22.871Z,7.73
2017-12-30T12:50:50.548Z,9.27
2017-12-30T12:53:18.259Z,8.30
2017-12-30T12:55:45.848Z,11.47
2017-12-30T12:58:13.565Z,12.83
2017-12-30T13:00:41.266Z,13.50
2017-12-30T13:03:08.988Z,14.17
2017-12-30T13:05:37.430Z,15.27
2017-12-30T13:08:05.125Z,15.43
2017-12-30T13:10:33.577Z,19.00
2017-12-30T13:13:01.266Z,20.17
2017-12-30T13:15:30.957Z,22.17
2017-12-30T13:17:58.601Z,24.37
2017-12-30T13:20:26.293Z,27.10
2017-12-30T13:22:54.018Z,26.13
2017-12-30T13:25:21.738Z,25.40
2017-12-30T13:27:49.482Z,26.80
2017-12-30T13:30:17.143Z,26.90
2017-12-30T13:32:44.792Z,26.53
2017-12-30T13:35:12.459Z,31.60
2017-12-30T13:37:40.174Z,34.67
2017-12-30T13:40:08.385Z,31.13
2017-12-30T13:42:35.986Z,33.23
2017-12-30T13:45:05.594Z,33.20
2017-12-30T13:47:34.030Z,32.50
2017-12-30T13:50:01.645Z,32.13
2017-12-30T13:52:29.238Z,32.33
2017-12-30T13:54:56.948Z,27.53
2017-12-30T13:57:24.653Z,27.10
2017-12-30T13:59:52.321Z,24.47
2017-12-30T14:02:20.016Z,25.63
2017-12-30T14:04:47.685Z,24.67
2017-12-30T14:07:15.407Z,26.30
2017-12-30T14:09:43.118Z,25.23
2017-12-30T14:12:10.695Z,21.63
2017-12-30T14:14:39.250Z,21.80
2017-12-30T14:17:06.890Z,20.80
2017-12-30T14:19:34.536Z,19.20
2017-12-30T14:22:02.244Z,19.67
2017-12-30T14:24:29.977Z,16.97
2017-12-30T14:26:57.678Z,17.87
2017-12-30T14:29:25.379Z,16.60
2017-12-30T14:31:53.794Z,14.80
2017-12-30T14:34:21.383Z,15.73
2017-12-30T14:36:48.977Z,12.60
2017-12-30T14:39:17.438Z,11.63
2017-12-30T14:41:45.135Z,13.03
2017-12-30T14:46:46.711Z,11.23
2017-12-30T14:49:14.366Z,10.93
2017-12-30T14:51:42.186Z,11.50
2017-12-30T14:54:09.947Z,10.43
2017-12-30T14:56:37.653Z,8.97
2017-12-30T14:59:05.356Z,9.67
2017-12-30T15:01:33.034Z,9.37
2017-12-30T15:04:01.838Z,7.20
2017-12-30T15:06:29.496Z,8.10
2017-12-30T15:08:57.199Z,9.10
2017-12-30T15:11:24.906Z,7.70
2017-12-30T15:13:52.630Z,9.03
2017-12-30T15:16:20.363Z,7.30
2017-12-30T15:18:48.057Z,8.10
2017-12-30T15:21:16.568Z,8.20
2017-12-30T15:23:44.234Z,8.20
2017-12-30T15:26:12.922Z,8.30
2017-12-30T15:28:40.647Z,8.87
2017-12-30T15:31:09.040Z,7.23
2017-12-30T15:33:37.490Z,8.13
2017-12-30T15:36:05.161Z,8.80
2017-12-30T15:38:32.860Z,8.07
2017-12-30T15:41:00.571Z,7.63
2017-12-30T15:43:28.295Z,8.53
2017-12-30T15:45:55.985Z,7.60
2017-12-30T15:48:23.694Z,9.03
2017-12-30T15:50:52.156Z,7.47
2017-12-30T15:53:19.893Z,7.13
2017-12-30T15:55:48.532Z,8.00
2017-12-30T15:58:16.968Z,7.93
2017-12-30T16:00:44.680Z,8.43
2017-12-30T16:03:13.121Z,7.90
2017-12-30T16:05:40.830Z,9.13
2017-12-30T16:08:09.320Z,8.90
2017-12-30T16:10:37.032Z,7.73
2017-12-30T16:13:04.760Z,8.53
2017-12-30T16:15:32.478Z,8.77
2017-12-30T16:18:00.175Z,9.40
2017-12-30T16:20:27.898Z,7.83
2017-12-30T16:22:55.620Z,8.13
2017-12-30T16:25:24.546Z,9.17
2017-12-30T16:27:52.237Z,8.37
2017-12-30T16:30:19.896Z,8.23
2017-12-30T16:32:47.596Z,8.10
2017-12-30T16:35:15.234Z,8.27
2017-12-30T16:37:43.666Z,7.63
2017-12-30T16:40:11.324Z,8.70
2017-12-30T16:42:38.986Z,8.80
2017-12-30T16:45:06.604Z,8.53
2017-12-30T16:47:34.986Z,8.23
2017-12-30T16:50:03.428Z,8.57
2017-12-30T16:52:31.018Z,8.50
2017-12-30T16:54:59.854Z,9.17
2017-12-30T16:57:27.462Z,8.67
2017-12-30T16:59:55.177Z,8.07
2017-12-30T17:02:22.857Z,6.97
2017-12-30T17:04:50.526Z,8.07
2017-12-30T17:07:18.226Z,8.33
2017-12-30T17:09:45.924Z,7.30
2017-12-30T17:12:13.618Z,7.97
2017-12-30T17:14:41.298Z,7.17
2017-12-30T17:17:09.003Z,7.93
2017-12-30T17:19:37.467Z,7.80
2017-12-30T17:22:05.945Z,8.17
2017-12-30T17:24:34.633Z,9.67
2017-12-30T17:27:02.345Z,7.23
2017-12-30T17:29:30.073Z,7.53
2017-12-30T17:31:58.553Z,6.90
2017-12-30T17:34:26.258Z,7.53
2017-12-30T17:36:54.002Z,6.87
2017-12-30T17:39:21.720Z,7.73
2017-12-30T17:41:49.440Z,6.43
2017-12-30T17:44:17.151Z,8.63
2017-12-30T17:46:44.850Z,6.50
2017-12-30T17:49:12.562Z,7.07
2017-12-30T17:51:40.253Z,7.67
2017-12-30T17:54:09.038Z,6.30
2017-12-30T17:56:36.866Z,7.47
2017-12-30T17:59:04.525Z,6.23
2017-12-30T18:01:32.238Z,7.00
2017-12-30T18:03:59.989Z,6.40
2017-12-30T18:06:27.693Z,6.40
2017-12-30T18:08:55.423Z,7.13
2017-12-30T18:11:23.128Z,7.13
2017-12-30T18:13:56.340Z,7.00
2017-12-30T18:16:24.059Z,7.30
2017-12-30T18:18:52.530Z,7.80
2017-12-30T18:21:20.247Z,8.10
2017-12-30T18:23:47.948Z,7.73
2017-12-30T18:26:15.654Z,7.53
2017-12-30T18:28:43.375Z,8.20
2017-12-30T18:31:11.085Z,8.60
2017-12-30T18:33:38.821Z,7.93
2017-12-30T18:36:10.111Z,7.17
2017-12-30T18:38:37.822Z,7.80
2017-12-30T18:41:05.558Z,7.37
2017-12-30T18:43:33.271Z,7.63
2017-12-30T18:46:00.992Z,8.37
2017-12-30T18:48:28.634Z,7.60
2017-12-30T18:50:56.320Z,7.90
2017-12-30T18:53:23.981Z,7.33
2017-12-30T18:55:51.669Z,8.33
2017-12-30T18:58:19.388Z,7.83
2017-12-30T19:00:47.093Z,8.13
2017-12-30T19:03:14.779Z,9.17
2017-12-30T19:05:43.420Z,7.33
2017-12-30T19:08:11.096Z,8.70
2017-12-30T19:10:38.771Z,9.43
2017-12-30T19:13:06.469Z,8.33
2017-12-30T19:15:34.969Z,8.00
2017-12-30T19:18:02.662Z,7.80
2017-12-30T19:20:30.360Z,7.50
2017-12-30T19:22:58.068Z,7.73
2017-12-30T19:25:25.805Z,6.93
2017-12-30T19:27:54.299Z,6.87
2017-12-30T19:30:22.016Z,7.10
2017-12-30T19:32:49.750Z,6.13
2017-12-30T19:35:18.481Z,6.27
2017-12-30T19:37:46.198Z,6.70
2017-12-30T19:40:13.896Z,6.20
2017-12-30T19:42:41.636Z,5.87
2017-12-30T19:45:09.362Z,8.53
2017-12-30T19:47:36.982Z,6.80
2017-12-30T19:50:04.711Z,6.23
2017-12-30T19:52:32.391Z,4.93
2017-12-30T19:55:00.123Z,6.47
2017-12-30T19:57:27.787Z,5.43
2017-12-30T19:59:56.278Z,6.17
2017-12-30T20:02:23.990Z,7.00
2017-12-30T20:04:52.957Z,8.10
2017-12-30T20:07:20.635Z,8.83
2017-12-30T20:09:48.290Z,9.27
2017-12-30T20:12:16.727Z,9.93
2017-12-30T20:14:45.263Z,9.33
2017-12-30T20:17:12.918Z,8.83
2017-12-30T20:19:40.629Z,9.30
2017-12-30T20:22:08.364Z,8.53
2017-12-30T20:24:36.043Z,9.30
2017-12-30T20:27:03.780Z,9.30
2017-12-30T20:29:31.449Z,9.20
2017-12-30T20:31:59.171Z,9.97
2017-12-30T20:34:27.827Z,9.47
2017-12-30T20:36:55.543Z,9.73
2017-12-30T20:39:24.020Z,8.10
2017-12-30T20:41:51.715Z,8.83
2017-12-30T20:44:19.395Z,7.20
2017-12-30T20:46:47.074Z,9.47
2017-12-30T20:49:15.139Z,8.37
2017-12-30T20:51:43.612Z,7.60
2017-12-30T20:54:11.315Z,7.37
2017-12-30T20:56:38.989Z,8.07
2017-12-30T20:59:06.787Z,8.03
2017-12-30T21:01:34.539Z,7.73
2017-12-30T21:04:03.262Z,9.40
2017-12-30T21:06:30.999Z,7.20
2017-12-30T21:08:58.714Z,7.03
2017-12-30T21:11:27.193Z,6.60
2017-12-30T21:13:54.848Z,6.67
2017-12-30T21:16:23.317Z,7.73
2017-12-30T21:18:50.996Z,6.47
2017-12-30T21:21:19.390Z,7.57
2017-12-30T21:23:47.878Z,7.23
2017-12-30T21:26:15.551Z,7.13
2017-12-30T21:28:43.204Z,7.30
2017-12-30T21:31:11.020Z,6.80
2017-12-30T21:33:38.687Z,8.40
2017-12-30T21:36:06.390Z,7.47
2017-12-30T21:38:34.107Z,6.60
2017-12-30T21:41:01.806Z,7.00
2017-12-30T21:43:30.270Z,6.87
2017-12-30T21:45:57.981Z,6.23
2017-12-30T21:48:25.725Z,6.93
2017-12-30T21:50:54.178Z,7.00
2017-12-30T21:53:21.829Z,7.97
2017-12-30T21:55:50.525Z,6.53
2017-12-30T21:58:18.158Z,6.83
2017-12-30T22:00:45.981Z,7.73
2017-12-30T22:03:13.663Z,6.20
2017-12-30T22:05:41.381Z,5.10
2017-12-30T22:08:09.064Z,7.10
2017-12-30T22:10:37.540Z,6.00
2017-12-30T22:13:05.238Z,6.27
2017-12-30T22:15:32.944Z,6.37
2017-12-30T22:18:00.635Z,6.50
2017-12-30T22:20:28.360Z,6.43
2017-12-30T22:22:56.054Z,6.07
2017-12-30T22:25:24.753Z,6.87
2017-12-30T22:27:53.176Z,6.90
2017-12-30T22:30:20.876Z,6.47
2017-12-30T22:32:48.581Z,6.13
2017-12-30T22:35:17.056Z,6.53
2017-12-30T22:37:45.521Z,6.77
2017-12-30T22:40:13.215Z,6.33
2017-12-30T22:42:40.937Z,6.00
2017-12-30T22:45:08.634Z,6.57
2017-12-30T22:47:37.086Z,6.00
2017-12-30T22:50:04.761Z,6.87
2017-12-30T22:52:32.450Z,6.40
2017-12-30T22:55:01.111Z,6.27
2017-12-30T22:57:28.787Z,7.40
2017-12-30T22:59:57.228Z,6.43
2017-12-30T23:02:24.913Z,6.97
2017-12-30T23:04:52.616Z,6.97
2017-12-30T23:07:20.291Z,7.27
2017-12-30T23:09:47.983Z,7.57
2017-12-30T23:12:15.700Z,7.33
2017-12-30T23:14:43.406Z,7.23
2017-12-30T23:17:11.152Z,8.03
2017-12-30T23:19:38.776Z,9.10
2017-12-30T23:22:06.474Z,8.00
2017-12-30T23:24:35.426Z,8.60
2017-12-30T23:27:03.151Z,7.80
2017-12-30T23:29:30.816Z,8.47
2017-12-30T23:31:58.507Z,8.13
2017-12-30T23:34:26.141Z,7.53
2017-12-30T23:36:53.840Z,8.90
2017-12-30T23:39:21.512Z,8.23
2017-12-30T23:41:49.220Z,6.97
2017-12-30T23:44:16.898Z,7.47
2017-12-30T23:46:44.582Z,8.43
2017-12-30T23:49:12.293Z,7.97
2017-12-30T23:51:40.005Z,8.53
2017-12-30T23:54:08.630Z,8.90
2017-12-30T23:56:36.323Z,8.30
2017-12-30T23:59:03.937Z,9.03
